TimeMDT,TemperatureF,Dew PointF,Humidity,Sea Level PressureIn,VisibilityMPH,Wind Direction,Wind SpeedMPH,Gust SpeedMPH,PrecipitationIn,Events,Conditions,WindDirDegrees,DateUTC
12:54 AM,28.0,21.0,75,30.22,10.0,ENE,13.8,-,N/A,,Clear,70,2012-10-06 06:54:00
1:54 AM,26.1,21.0,81,30.24,10.0,NE,12.7,-,N/A,,Clear,50,2012-10-06 07:54:00
2:54 AM,25.0,21.0,85,30.24,10.0,ENE,6.9,-,N/A,,Clear,60,2012-10-06 08:54:00
3:54 AM,24.1,19.9,84,30.23,10.0,ENE,9.2,-,N/A,,Clear,60,2012-10-06 09:54:00
4:12 AM,24.8,19.4,80,30.25,10.0,NE,8.1,-,N/A,,Mostly Cloudy,50,2012-10-06 10:12:00
4:49 AM,24.8,19.4,80,30.26,10.0,NE,9.2,-,N/A,,Scattered Clouds,50,2012-10-06 10:49:00
4:54 AM,24.1,19.9,84,30.25,10.0,NE,11.5,-,N/A,,Partly Cloudy,50,2012-10-06 10:54:00
5:54 AM,24.1,19.0,81,30.26,10.0,ENE,11.5,-,N/A,,Mostly Cloudy,60,2012-10-06 11:54:00
6:21 AM,23.0,17.6,80,30.28,10.0,ENE,11.5,-,N/A,,Partly Cloudy,60,2012-10-06 12:21:00
6:54 AM,21.9,17.1,82,30.32,10.0,ENE,15.0,-,N/A,,Clear,60,2012-10-06 12:54:00
7:54 AM,21.9,17.1,82,30.35,10.0,ENE,10.4,-,N/A,,Clear,70,2012-10-06 13:54:00
8:54 AM,26.1,17.1,69,30.38,10.0,ENE,17.3,-,N/A,,Clear,60,2012-10-06 14:54:00
9:54 AM,30.0,17.1,59,30.38,10.0,East,12.7,-,N/A,,Clear,80,2012-10-06 15:54:00
10:54 AM,33.1,16.0,50,30.36,10.0,East,12.7,-,N/A,,Partly Cloudy,90,2012-10-06 16:54:00
11:54 AM,34.0,15.1,46,30.35,10.0,ESE,6.9,-,N/A,,Partly Cloudy,120,2012-10-06 17:54:00
12:54 PM,37.0,14.0,39,30.31,10.0,Variable,4.6,16.1,N/A,,Clear,0,2012-10-06 18:54:00
1:54 PM,39.0,12.0,33,30.28,10.0,Calm,Calm,-,N/A,,Clear,0,2012-10-06 19:54:00
2:54 PM,42.1,10.9,28,30.24,10.0,Calm,Calm,-,N/A,,Clear,0,2012-10-06 20:54:00
3:54 PM,42.1,10.0,27,30.24,10.0,ESE,6.9,-,N/A,,Clear,110,2012-10-06 21:54:00
5:54 PM,41.0,6.1,24,30.21,10.0,Calm,Calm,-,N/A,,Clear,0,2012-10-06 23:54:00
6:54 PM,37.0,6.1,28,30.25,10.0,North,4.6,-,N/A,,Clear,350,2012-10-07 00:54:00
7:54 PM,37.9,7.0,28,30.25,10.0,Calm,Calm,-,N/A,,Clear,0,2012-10-07 01:54:00
8:54 PM,34.0,7.0,32,30.24,10.0,East,6.9,-,N/A,,Clear,100,2012-10-07 02:54:00
9:54 PM,32.0,7.0,35,30.24,10.0,East,4.6,-,N/A,,Scattered Clouds,90,2012-10-07 03:54:00
10:54 PM,32.0,6.1,34,30.21,10.0,South,6.9,-,N/A,,Partly Cloudy,190,2012-10-07 04:54:00
11:54 PM,30.9,6.1,35,30.21,10.0,SE,3.5,-,N/A,,Clear,140,2012-10-07 05:54:00